createdAt,value
2022-08-25T00:00:23.221Z,82.56
2022-08-25T00:02:56.159Z,82.37
2022-08-25T00:05:33.576Z,81.56
2022-08-25T00:08:08.680Z,81.33
2022-08-25T00:10:41.866Z,80.89
2022-08-25T00:13:12.732Z,80.85
2022-08-25T00:15:42.817Z,80.76
2022-08-25T00:18:19.589Z,81.21
2022-08-25T00:20:50.746Z,80.38
2022-08-25T00:23:23.568Z,80.29
2022-08-25T00:25:55.373Z,80.51
2022-08-25T00:28:25.425Z,80.42
2022-08-25T00:30:55.609Z,80.94
2022-08-25T00:33:26.367Z,80.75
2022-08-25T00:35:57.287Z,81.00
2022-08-25T00:38:30.553Z,80.77
2022-08-25T00:41:11.437Z,80.31
2022-08-25T00:43:51.929Z,80.38
2022-08-25T00:46:24.318Z,80.38
2022-08-25T00:49:00.748Z,79.93
2022-08-25T00:51:38.125Z,79.74
2022-08-25T00:54:13.519Z,79.29
2022-08-25T00:56:44.715Z,78.56
2022-08-25T00:59:16.516Z,78.13
2022-08-25T01:01:46.683Z,78.09
2022-08-25T01:04:16.798Z,77.51
2022-08-25T01:06:48.083Z,77.53
2022-08-25T01:09:22.391Z,77.36
2022-08-25T01:11:53.008Z,77.54
2022-08-25T01:14:24.624Z,77.56
2022-08-25T01:16:58.279Z,77.91
2022-08-25T01:19:29.854Z,78.09
2022-08-25T01:22:03.199Z,78.40
2022-08-25T01:24:41.536Z,78.59
2022-08-25T01:27:12.630Z,78.49
2022-08-25T01:29:43.094Z,79.17
2022-08-25T01:32:16.061Z,79.27
2022-08-25T01:34:47.959Z,79.61
2022-08-25T01:37:21.946Z,79.74
2022-08-25T01:39:52.178Z,79.81
2022-08-25T01:42:32.037Z,80.75
2022-08-25T01:45:02.085Z,80.73
2022-08-25T01:47:32.468Z,80.71
2022-08-25T01:50:02.545Z,80.86
2022-08-25T01:52:40.155Z,81.00
2022-08-25T01:55:11.029Z,81.19
2022-08-25T01:57:41.152Z,81.32
2022-08-25T02:00:15.151Z,81.37
2022-08-25T02:02:45.838Z,81.27
2022-08-25T02:05:20.383Z,81.36
2022-08-25T02:07:56.233Z,81.14
2022-08-25T02:10:26.293Z,80.95
2022-08-25T02:12:56.353Z,80.69
2022-08-25T02:15:26.602Z,80.12
2022-08-25T02:17:57.332Z,79.89
2022-08-25T02:20:28.069Z,80.11
2022-08-25T02:23:00.724Z,80.07
2022-08-25T02:25:31.117Z,79.78
2022-08-25T02:28:01.713Z,79.72
2022-08-25T02:30:31.891Z,79.55
2022-08-25T02:33:04.066Z,79.77
2022-08-25T02:35:34.239Z,79.81
2022-08-25T02:38:07.943Z,80.31
2022-08-25T02:40:38.124Z,79.93
2022-08-25T02:43:08.629Z,80.56
2022-08-25T02:45:38.974Z,80.39
2022-08-25T02:48:09.175Z,80.31
2022-08-25T02:50:40.790Z,80.86
2022-08-25T02:53:13.508Z,80.92
2022-08-25T02:55:43.650Z,80.80
2022-08-25T02:58:13.852Z,80.78
2022-08-25T03:00:44.560Z,81.02
2022-08-25T03:03:15.745Z,81.35
2022-08-25T03:05:45.905Z,81.19
2022-08-25T03:08:18.986Z,81.31
2022-08-25T03:10:49.102Z,81.78
2022-08-25T03:13:22.102Z,81.75
2022-08-25T03:15:52.401Z,82.29
2022-08-25T03:18:23.216Z,81.86
2022-08-25T03:20:54.732Z,81.86
2022-08-25T03:23:27.415Z,81.78
2022-08-25T03:26:10.279Z,81.91
2022-08-25T03:28:40.375Z,81.75
2022-08-25T03:31:11.547Z,81.79
2022-08-25T03:33:41.823Z,81.72
2022-08-25T03:36:14.747Z,81.79
2022-08-25T03:38:47.558Z,81.53
2022-08-25T03:41:20.146Z,81.33
2022-08-25T03:43:50.481Z,81.56
2022-08-25T03:46:22.321Z,81.13
2022-08-25T03:48:52.811Z,80.80
2022-08-25T03:51:25.271Z,80.81
2022-08-25T03:53:59.176Z,80.73
2022-08-25T03:56:29.964Z,80.48
2022-08-25T03:59:00.304Z,80.45
2022-08-25T04:01:30.791Z,80.99
2022-08-25T04:04:00.953Z,80.54
2022-08-25T04:06:31.070Z,80.55
2022-08-25T04:09:04.034Z,80.61
2022-08-25T04:11:34.093Z,80.43
2022-08-25T04:14:07.498Z,80.34
2022-08-25T04:16:38.784Z,80.56
2022-08-25T04:19:10.686Z,80.12
2022-08-25T04:21:41.795Z,79.59
2022-08-25T04:24:15.999Z,79.42
2022-08-25T04:26:48.531Z,79.35
2022-08-25T04:29:23.785Z,79.26
2022-08-25T04:31:55.306Z,78.91
2022-08-25T04:34:29.447Z,78.56
2022-08-25T04:37:01.965Z,78.37
2022-08-25T04:39:37.488Z,77.82
2022-08-25T04:42:08.405Z,77.85
2022-08-25T04:44:38.489Z,78.14
2022-08-25T04:47:08.819Z,77.87
2022-08-25T04:49:38.904Z,77.50
2022-08-25T04:52:14.562Z,77.63
2022-08-25T04:54:47.806Z,77.62
2022-08-25T04:57:17.909Z,76.91
2022-08-25T04:59:47.935Z,76.94
2022-08-25T05:02:18.042Z,76.86
2022-08-25T05:04:48.172Z,76.15
2022-08-25T05:07:18.220Z,75.48
2022-08-25T05:09:50.859Z,75.43
2022-08-25T05:12:21.045Z,73.98
2022-08-25T05:14:51.292Z,73.81
2022-08-25T05:17:21.345Z,73.04
2022-08-25T05:19:52.647Z,70.92
2022-08-25T05:22:22.746Z,69.51
2022-08-25T05:24:55.681Z,68.83
2022-08-25T05:27:25.780Z,68.79
2022-08-25T05:29:56.047Z,68.89
2022-08-25T05:32:26.121Z,68.98
2022-08-25T05:34:56.508Z,68.65
2022-08-25T05:37:26.889Z,68.86
2022-08-25T05:39:59.579Z,68.14
2022-08-25T05:42:30.388Z,65.96
2022-08-25T05:45:00.492Z,65.70
2022-08-25T05:47:30.701Z,64.96
2022-08-25T05:50:01.445Z,63.65
2022-08-25T05:52:31.687Z,61.94
2022-08-25T05:55:04.442Z,62.00
2022-08-25T05:57:36.270Z,61.06
2022-08-25T06:00:07.888Z,60.26
2022-08-25T06:02:41.481Z,59.20
2022-08-25T06:05:11.976Z,57.46
2022-08-25T06:07:45.544Z,56.20
2022-08-25T06:10:19.459Z,55.49
2022-08-25T06:12:50.611Z,54.96
2022-08-25T06:15:23.611Z,55.18
2022-08-25T06:17:58.981Z,55.41
2022-08-25T06:20:33.414Z,54.63
2022-08-25T06:23:03.540Z,53.90
2022-08-25T06:25:36.328Z,53.82
2022-08-25T06:28:07.119Z,53.19
2022-08-25T06:30:37.351Z,52.72
2022-08-25T06:33:07.513Z,51.48
2022-08-25T06:35:38.294Z,51.92
2022-08-25T06:38:08.389Z,49.89
2022-08-25T06:40:41.471Z,50.43
2022-08-25T06:43:11.598Z,51.46
2022-08-25T06:45:41.933Z,50.58
2022-08-25T06:48:12.071Z,50.05
2022-08-25T06:50:42.626Z,49.80
2022-08-25T06:53:12.790Z,48.71
2022-08-25T06:55:45.419Z,47.80
2022-08-25T06:58:15.641Z,47.46
2022-08-25T07:00:45.858Z,47.69
2022-08-25T07:03:17.349Z,46.26
2022-08-25T07:05:54.326Z,45.18
2022-08-25T07:08:24.532Z,44.10
2022-08-25T07:10:57.402Z,43.07
2022-08-25T07:13:30.140Z,42.46
2022-08-25T07:16:00.276Z,42.01
2022-08-25T07:18:31.182Z,41.18
2022-08-25T07:21:01.441Z,41.10
2022-08-25T07:23:32.359Z,40.45
2022-08-25T07:26:36.307Z,39.38
2022-08-25T07:29:05.266Z,39.64
2022-08-25T07:31:38.488Z,39.15
2022-08-25T07:34:21.145Z,38.65
2022-08-25T07:36:51.322Z,38.40
2022-08-25T07:39:22.018Z,38.05
2022-08-25T07:41:55.517Z,37.50
2022-08-25T07:44:28.172Z,38.05
2022-08-25T07:46:59.186Z,37.14
2022-08-25T07:49:35.779Z,37.29
2022-08-25T07:52:09.797Z,37.81
2022-08-25T07:54:40.926Z,36.79
2022-08-25T07:57:14.002Z,35.59
2022-08-25T07:59:44.823Z,35.81
2022-08-25T08:02:18.172Z,36.24
2022-08-25T08:04:50.236Z,36.16
2022-08-25T08:07:22.810Z,35.33
2022-08-25T08:10:18.964Z,36.09
2022-08-25T08:12:46.214Z,35.31
2022-08-25T08:15:16.516Z,34.90
2022-08-25T08:17:46.737Z,34.41
2022-08-25T08:20:23.382Z,33.33
2022-08-25T08:22:53.856Z,33.77
2022-08-25T08:25:26.628Z,34.22
2022-08-25T08:28:00.824Z,34.54
2022-08-25T08:30:31.397Z,34.70
2022-08-25T08:33:11.293Z,32.69
2022-08-25T08:35:43.173Z,32.86
2022-08-25T08:38:18.424Z,32.97
2022-08-25T08:41:15.964Z,32.34
2022-08-25T08:43:51.876Z,32.33
2022-08-25T08:46:26.129Z,32.60
2022-08-25T08:49:05.006Z,32.31
2022-08-25T08:51:41.066Z,32.71
2022-08-25T08:54:18.675Z,33.27
2022-08-25T08:56:53.510Z,32.17
2022-08-25T08:59:30.915Z,31.67
2022-08-25T09:02:03.183Z,32.20
2022-08-25T09:04:38.416Z,32.56
2022-08-25T09:07:16.346Z,32.58
2022-08-25T09:09:48.253Z,32.11
2022-08-25T09:12:33.634Z,31.56
2022-08-25T09:15:17.644Z,31.69
2022-08-25T09:18:08.694Z,31.37
2022-08-25T09:20:57.840Z,30.53
2022-08-25T09:23:42.280Z,29.77
2022-08-25T09:26:27.814Z,30.45
2022-08-25T09:29:06.366Z,30.82
2022-08-25T09:31:51.625Z,29.56
2022-08-25T09:34:25.027Z,28.88
2022-08-25T09:37:05.969Z,30.39
2022-08-25T09:39:39.194Z,31.20
2022-08-25T09:42:09.708Z,30.95
2022-08-25T09:44:44.612Z,30.65
2022-08-25T09:53:59.326Z,29.90
2022-08-25T09:56:31.971Z,29.54
2022-08-25T09:59:34.102Z,29.84
2022-08-25T10:02:08.393Z,28.43
2022-08-25T10:04:41.324Z,28.73
2022-08-25T10:07:24.186Z,29.47
2022-08-25T10:09:59.982Z,28.92
2022-08-25T10:12:36.911Z,29.53
2022-08-25T10:15:29.198Z,30.21
2022-08-25T10:18:26.177Z,30.58
2022-08-25T10:21:09.575Z,30.43
2022-08-25T10:23:44.997Z,30.60
2022-08-25T10:26:34.899Z,31.07
2022-08-25T10:29:19.063Z,28.75
2022-08-25T10:38:42.909Z,29.02
2022-08-25T10:41:33.055Z,29.08
2022-08-25T10:44:28.557Z,29.86
2022-08-25T10:47:10.119Z,29.40
2022-08-25T10:49:49.938Z,28.88
2022-08-25T10:52:26.938Z,29.81
2022-08-25T10:55:10.306Z,30.29
2022-08-25T10:57:50.782Z,31.27
2022-08-25T11:00:31.698Z,31.04
2022-08-25T11:03:16.323Z,29.39
2022-08-25T11:05:54.016Z,29.45
2022-08-25T11:08:35.625Z,29.20
2022-08-25T11:11:12.551Z,29.33
2022-08-25T11:13:50.402Z,29.44
2022-08-25T11:16:32.466Z,29.04
2022-08-25T11:19:08.654Z,29.17
2022-08-25T11:21:47.593Z,29.65
2022-08-25T11:24:37.913Z,29.99
2022-08-25T11:27:13.746Z,30.24
2022-08-25T11:30:06.094Z,29.65
2022-08-25T11:32:37.996Z,30.49
2022-08-25T11:35:12.284Z,29.58
2022-08-25T11:37:56.673Z,29.84
2022-08-25T11:40:41.500Z,30.52
2022-08-25T11:43:29.070Z,30.16
2022-08-25T11:46:22.687Z,29.12
2022-08-25T11:49:10.888Z,29.00
2022-08-25T11:51:44.706Z,28.10
2022-08-25T11:54:22.505Z,29.05
2022-08-25T11:56:59.779Z,29.80
2022-08-25T12:00:05.573Z,29.31
2022-08-25T12:02:44.056Z,27.97
2022-08-25T12:05:50.042Z,28.15
2022-08-25T12:08:57.538Z,28.56
2022-08-25T12:11:46.856Z,28.61
2022-08-25T12:14:41.213Z,29.10
2022-08-25T12:17:24.603Z,28.82
2022-08-25T12:20:01.474Z,30.15
2022-08-25T12:22:57.034Z,29.31
2022-08-25T12:25:43.468Z,29.26
2022-08-25T12:28:29.561Z,29.33
2022-08-25T12:31:14.745Z,29.67
2022-08-25T12:33:55.642Z,30.23
2022-08-25T12:36:34.592Z,30.45
2022-08-25T12:39:19.862Z,30.50
2022-08-25T12:41:59.244Z,28.40
2022-08-25T12:44:41.161Z,29.25
2022-08-25T12:47:31.976Z,28.81
2022-08-25T12:50:32.665Z,28.78
2022-08-25T12:53:14.414Z,29.82
2022-08-25T12:55:54.700Z,30.26
2022-08-25T12:58:38.626Z,30.31
2022-08-25T13:01:35.498Z,30.66
2022-08-25T13:04:34.943Z,30.26
2022-08-25T13:07:26.498Z,30.21
2022-08-25T13:10:20.859Z,30.60
2022-08-25T13:12:57.762Z,31.00
2022-08-25T13:15:45.233Z,31.24
2022-08-25T13:18:23.164Z,30.94
2022-08-25T13:23:30.223Z,31.00
2022-08-25T13:26:03.142Z,31.08
2022-08-25T13:28:35.322Z,30.33
2022-08-25T13:31:09.939Z,29.94
2022-08-25T13:33:40.821Z,29.97
2022-08-25T13:36:32.598Z,30.13
2022-08-25T13:39:15.315Z,29.63
2022-08-25T13:41:55.579Z,31.37
2022-08-25T13:44:28.801Z,30.82
2022-08-25T13:47:09.983Z,30.70
2022-08-25T13:49:41.834Z,30.65
2022-08-25T13:52:30.168Z,30.99
2022-08-25T13:55:04.646Z,31.54
2022-08-25T13:57:37.671Z,31.53
2022-08-25T14:00:12.663Z,30.30
2022-08-25T14:02:45.484Z,30.81
2022-08-25T14:05:36.010Z,31.05
2022-08-25T14:08:25.280Z,30.51
2022-08-25T14:11:14.698Z,30.70
2022-08-25T14:13:49.358Z,30.56
2022-08-25T14:16:25.457Z,30.96
2022-08-25T14:18:58.832Z,30.46
2022-08-25T14:21:32.961Z,30.57
2022-08-25T14:24:06.830Z,30.92
2022-08-25T14:26:54.472Z,31.28
2022-08-25T14:29:27.827Z,31.23
2022-08-25T14:32:00.035Z,31.78
2022-08-25T14:34:36.811Z,32.10
2022-08-25T14:37:15.553Z,31.93
2022-08-25T14:39:46.202Z,30.85
2022-08-25T14:42:17.193Z,31.10
2022-08-25T14:44:50.865Z,31.83
2022-08-25T14:47:22.231Z,31.28
2022-08-25T14:49:54.402Z,31.24
2022-08-25T14:52:29.949Z,31.86
2022-08-25T14:55:00.290Z,32.05
2022-08-25T14:57:38.489Z,31.44
2022-08-25T15:00:13.850Z,31.42
2022-08-25T15:02:49.968Z,32.21
2022-08-25T15:05:28.467Z,32.94
2022-08-25T15:08:12.431Z,32.50
2022-08-25T15:10:43.550Z,32.46
2022-08-25T15:13:14.308Z,32.12
2022-08-25T15:15:52.762Z,32.68
2022-08-25T15:18:24.255Z,32.37
2022-08-25T15:20:57.695Z,32.75
2022-08-25T15:23:27.954Z,32.30
2022-08-25T15:25:59.384Z,32.27
2022-08-25T15:28:33.731Z,32.47
2022-08-25T15:31:06.735Z,32.35
2022-08-25T15:33:38.639Z,32.42
2022-08-25T15:36:11.393Z,32.28
2022-08-25T15:38:46.872Z,31.75
2022-08-25T15:41:17.536Z,31.82
2022-08-25T15:43:47.710Z,31.81
2022-08-25T15:46:27.992Z,32.43
2022-08-25T15:48:59.682Z,31.68
2022-08-25T15:51:30.567Z,32.38
2022-08-25T15:54:00.931Z,31.98
2022-08-25T15:56:34.091Z,32.60
2022-08-25T15:59:08.686Z,32.59
2022-08-25T16:01:41.562Z,32.86
2022-08-25T16:04:11.916Z,32.77
2022-08-25T16:06:42.272Z,32.63
2022-08-25T16:09:12.495Z,32.93
2022-08-25T16:11:43.590Z,33.05
2022-08-25T16:14:15.222Z,33.31
2022-08-25T16:16:48.680Z,32.88
2022-08-25T16:19:18.845Z,32.94
2022-08-25T16:21:49.114Z,32.63
2022-08-25T16:24:20.396Z,32.76
2022-08-25T16:26:51.751Z,32.80
2022-08-25T16:29:22.856Z,32.37
2022-08-25T16:31:55.660Z,32.75
2022-08-25T16:34:30.803Z,32.83
2022-08-25T16:37:02.064Z,32.77
2022-08-25T16:39:32.364Z,33.08
2022-08-25T16:42:02.867Z,32.53
2022-08-25T16:44:34.500Z,33.00
2022-08-25T16:47:09.573Z,33.44
2022-08-25T16:49:44.456Z,33.14
2022-08-25T16:52:28.544Z,33.06
2022-08-25T16:55:11.889Z,33.29
2022-08-25T16:57:43.427Z,33.66
2022-08-25T17:00:17.661Z,34.13
2022-08-25T17:02:51.727Z,33.85
2022-08-25T17:05:22.153Z,34.33
2022-08-25T17:08:05.031Z,34.60
2022-08-25T17:10:38.765Z,34.73
2022-08-25T17:13:09.175Z,35.28
2022-08-25T17:15:43.412Z,35.82
2022-08-25T17:18:16.602Z,35.80
2022-08-25T17:20:48.768Z,35.79
2022-08-25T17:23:21.455Z,36.44
2022-08-25T17:25:53.062Z,37.41
2022-08-25T17:28:23.701Z,38.12
2022-08-25T17:30:55.566Z,38.59
2022-08-25T17:33:29.101Z,39.13
2022-08-25T17:36:00.613Z,39.83
2022-08-25T17:38:33.886Z,39.79
2022-08-25T17:41:06.978Z,40.25
2022-08-25T17:43:40.143Z,41.27
2022-08-25T17:46:11.832Z,42.11
2022-08-25T17:48:45.695Z,42.26
2022-08-25T17:51:18.541Z,43.02
2022-08-25T17:53:48.799Z,43.48
2022-08-25T17:56:22.403Z,43.75
2022-08-25T17:58:55.242Z,44.25
2022-08-25T18:01:27.841Z,44.63
2022-08-25T18:04:01.852Z,45.05
2022-08-25T18:06:32.641Z,44.79
2022-08-25T18:09:06.296Z,44.90
2022-08-25T18:11:36.497Z,44.76
2022-08-25T18:14:06.803Z,44.87
2022-08-25T18:16:42.138Z,45.40
2022-08-25T18:19:16.847Z,46.27
2022-08-25T18:21:47.269Z,47.17
2022-08-25T18:24:17.624Z,46.97
2022-08-25T18:26:49.510Z,47.28
2022-08-25T18:29:20.295Z,47.15
2022-08-25T18:31:53.663Z,46.33
2022-08-25T18:34:30.430Z,46.32
2022-08-25T18:37:21.690Z,46.54
2022-08-25T18:40:06.809Z,46.06
2022-08-25T18:42:40.546Z,45.50
2022-08-25T18:45:12.798Z,45.69
2022-08-25T18:47:43.219Z,45.98
2022-08-25T18:50:16.098Z,46.37
2022-08-25T18:52:46.301Z,46.98
2022-08-25T18:55:16.612Z,46.89
2022-08-25T18:57:47.584Z,47.68
2022-08-25T19:00:23.710Z,48.14
2022-08-25T19:02:57.509Z,48.38
2022-08-25T19:05:34.633Z,48.68
2022-08-25T19:08:08.874Z,49.06
2022-08-25T19:10:40.401Z,49.17
2022-08-25T19:13:12.591Z,49.34
2022-08-25T19:15:44.191Z,49.83
2022-08-25T19:18:16.043Z,50.02
2022-08-25T19:20:50.303Z,50.28
2022-08-25T19:23:22.772Z,50.47
2022-08-25T19:25:53.017Z,51.03
2022-08-25T19:28:23.342Z,51.22
2022-08-25T19:30:54.325Z,51.30
2022-08-25T19:33:42.699Z,51.46
2022-08-25T19:36:19.019Z,51.70
2022-08-25T19:38:54.054Z,51.73
2022-08-25T19:41:25.047Z,51.80
2022-08-25T19:43:57.444Z,51.71
2022-08-25T19:46:32.728Z,51.85
2022-08-25T19:49:08.930Z,52.19
2022-08-25T19:51:45.455Z,51.88
2022-08-25T19:54:17.327Z,52.32
2022-08-25T19:56:54.305Z,52.40
2022-08-25T19:59:40.689Z,52.27
2022-08-25T20:02:15.968Z,52.38
2022-08-25T20:04:49.217Z,52.91
2022-08-25T20:07:25.456Z,52.71
2022-08-25T20:09:57.680Z,52.80
2022-08-25T20:12:28.986Z,52.59
2022-08-25T20:14:59.288Z,53.12
2022-08-25T20:17:30.275Z,52.62
2022-08-25T20:20:04.547Z,52.83
2022-08-25T20:22:38.518Z,53.10
2022-08-25T20:25:13.437Z,52.74
2022-08-25T20:27:46.529Z,53.02
2022-08-25T20:30:22.210Z,52.63
2022-08-25T20:32:52.757Z,52.40
2022-08-25T20:35:26.327Z,52.25
2022-08-25T20:38:01.150Z,52.71
2022-08-25T20:40:33.678Z,52.80
2022-08-25T20:43:05.043Z,52.19
2022-08-25T20:45:43.763Z,52.37
2022-08-25T20:48:14.097Z,52.31
2022-08-25T20:50:44.395Z,52.07
2022-08-25T20:53:17.986Z,52.41
2022-08-25T20:55:48.562Z,52.23
2022-08-25T20:58:19.379Z,52.40
2022-08-25T21:00:49.945Z,52.64
2022-08-25T21:03:20.209Z,52.73
2022-08-25T21:05:54.150Z,52.55
2022-08-25T21:08:28.044Z,52.49
2022-08-25T21:10:58.000Z,52.67
2022-08-25T21:13:28.705Z,52.94
2022-08-25T21:16:05.606Z,52.39
2022-08-25T21:18:36.025Z,52.42
2022-08-25T21:21:12.359Z,52.89
2022-08-25T21:23:48.225Z,52.62
2022-08-25T21:26:21.224Z,52.69
2022-08-25T21:28:51.463Z,52.84
2022-08-25T21:31:23.668Z,52.81
2022-08-25T21:33:56.528Z,53.38
2022-08-25T21:36:28.921Z,52.67
2022-08-25T21:39:03.582Z,52.62
2022-08-25T21:41:36.808Z,53.30
2022-08-25T21:44:07.334Z,53.45
2022-08-25T21:46:39.255Z,53.15
2022-08-25T21:49:10.969Z,53.56
2022-08-25T21:51:46.887Z,53.81
2022-08-25T21:54:20.848Z,53.86
2022-08-25T21:56:58.601Z,53.35
2022-08-25T21:59:31.846Z,53.64
2022-08-25T22:02:04.460Z,53.25
2022-08-25T22:04:35.710Z,53.47
2022-08-25T22:07:08.376Z,53.38
2022-08-25T22:09:41.822Z,53.41
2022-08-25T22:12:13.316Z,53.28
2022-08-25T22:14:45.802Z,53.26
2022-08-25T22:17:17.284Z,53.58
2022-08-25T22:19:54.459Z,53.48
2022-08-25T22:22:25.220Z,53.40
2022-08-25T22:24:58.832Z,53.23
2022-08-25T22:27:29.276Z,53.40
2022-08-25T22:29:59.632Z,53.60
2022-08-25T22:32:30.610Z,53.47
2022-08-25T22:35:00.818Z,53.57
2022-08-25T22:37:31.183Z,53.96
2022-08-25T22:40:07.720Z,53.79
2022-08-25T22:42:38.062Z,54.25
2022-08-25T22:45:09.077Z,54.33
2022-08-25T22:47:39.876Z,54.96
2022-08-25T22:50:12.605Z,55.41
2022-08-25T22:52:42.821Z,57.09
2022-08-25T22:55:16.667Z,57.52
2022-08-25T22:57:47.528Z,58.25
2022-08-25T23:00:19.344Z,58.37
2022-08-25T23:02:53.301Z,58.92
2022-08-25T23:05:23.923Z,59.43
2022-08-25T23:07:54.150Z,59.11
2022-08-25T23:10:27.467Z,58.51
2022-08-25T23:12:57.676Z,58.80
2022-08-25T23:15:27.994Z,58.89
2022-08-25T23:17:58.279Z,58.72
2022-08-25T23:20:45.192Z,58.63
2022-08-25T23:23:16.701Z,59.15
2022-08-25T23:25:49.459Z,59.48
2022-08-25T23:28:20.167Z,59.32
2022-08-25T23:30:56.968Z,59.87
2022-08-25T23:33:29.883Z,60.28
2022-08-25T23:36:04.309Z,59.96
2022-08-25T23:38:34.498Z,60.19
2022-08-25T23:41:11.056Z,60.38
2022-08-25T23:43:41.256Z,60.46
2022-08-25T23:46:11.850Z,60.71
2022-08-25T23:48:42.590Z,61.01
2022-08-25T23:51:13.236Z,60.95
2022-08-25T23:53:43.393Z,61.06
2022-08-25T23:56:16.246Z,60.75
2022-08-25T23:58:46.421Z,60.91
